Terminal Aerodrome Forecast
Issued by NWS

Home | Current Version | Previous Version | Text Only | Print | Product List | Glossary On
Versions: 1 2 3 4 5 6 7 8 9 10 11 12 13 14 15 16 17 18 19
000
FTUS43 KBIS 271131
TAFJMS
TAF
KJMS 271131Z 2712/2812 01008KT P6SM BKN015
      TEMPO 2713/2717 BKN035
     FM271700 35012G20KT P6SM BKN025
     FM272000 36012G20KT P6SM BKN040
     FM280100 36007KT P6SM FEW070=

USA.gov is the U.S. government's official web portal to all federal, state and local government web resources and services.